Time;durP1;ratioP1;P1;durP2;ratioP2;P2;SDS_P1;SDS_P2;PMS_P1;PMS_P2;Temp;Humidity;BMP_temperature;BMP_pressure;BME280_temperature;BME280_humidity;BME280_pressure;Samples;Min_cycle;Max_cycle;Signal;HPM_P1;HPM_P2
2021/08/18 00:01:38;;;;;;;25.95;10.40;;;;;;;13.92;94.82;99211.06;5115262;28;19931;-80
2021/08/18 00:04:17;;;;;;;31.35;10.48;;;;;;;13.89;95.33;99204.13;5115069;28;20132;-80
2021/08/18 00:06:44;;;;;;;24.83;9.95;;;;;;;13.85;95.43;99194.69;5114675;28;20097;-80
2021/08/18 00:09:12;;;;;;;22.42;10.80;;;;;;;13.89;95.81;99200.56;5115116;28;20055;-80
2021/08/18 00:11:39;;;;;;;24.65;10.55;;;;;;;14.01;95.52;99196.16;5115231;28;20048;-80
2021/08/18 00:14:07;;;;;;;22.52;10.32;;;;;;;13.92;94.88;99191.94;5113320;28;20051;-80
2021/08/18 00:16:34;;;;;;;24.70;10.70;;;;;;;13.83;94.69;99182.25;5115344;28;20119;-80
2021/08/18 00:19:00;;;;;;;23.83;10.23;;;;;;;13.80;94.29;99184.38;5114813;28;20661;-80
2021/08/18 00:21:27;;;;;;;26.45;11.00;;;;;;;13.92;94.42;99194.69;5114926;28;20449;-81
2021/08/18 00:23:54;;;;;;;19.63;9.65;;;;;;;13.74;94.83;99182.41;5114681;28;20044;-80
2021/08/18 00:26:26;;;;;;;27.48;10.68;;;;;;;13.91;94.28;99202.03;5114939;28;20104;-80
2021/08/18 00:28:53;;;;;;;21.10;9.90;;;;;;;13.90;94.17;99194.88;5099666;28;20408;-81
2021/08/18 00:31:22;;;;;;;20.65;10.48;;;;;;;13.90;94.71;99194.88;5094849;28;20052;-80
2021/08/18 00:33:50;;;;;;;24.45;10.23;;;;;;;13.77;93.99;99181.19;5114589;28;20499;-80
2021/08/18 00:36:17;;;;;;;28.20;10.52;;;;;;;13.80;93.63;99192.56;5115115;28;20048;-80
2021/08/18 00:38:43;;;;;;;23.48;10.48;;;;;;;13.90;94.39;99205.00;5114248;28;20043;-80
2021/08/18 00:41:11;;;;;;;21.38;10.48;;;;;;;13.85;94.35;99191.94;5114609;28;20136;-80
2021/08/18 00:43:38;;;;;;;22.27;10.35;;;;;;;13.74;95.01;99187.06;5114216;28;20110;-80
2021/08/18 00:46:05;;;;;;;27.85;11.50;;;;;;;13.77;95.39;99198.41;5114158;28;20047;-79
2021/08/18 00:48:33;;;;;;;31.63;11.77;;;;;;;13.75;95.01;99194.22;5114374;28;20483;-79
2021/08/18 00:51:00;;;;;;;28.38;10.50;;;;;;;13.71;95.18;99184.72;5114457;28;20047;-79
2021/08/18 00:53:27;;;;;;;23.75;11.20;;;;;;;13.76;95.38;99177.63;5113924;28;20047;-79
2021/08/18 00:55:55;;;;;;;24.73;10.10;;;;;;;13.75;94.58;99167.72;5114250;28;20047;-80
2021/08/18 00:58:22;;;;;;;27.23;11.00;;;;;;;13.84;94.93;99192.97;5114199;28;20059;-80
2021/08/18 01:00:49;;;;;;;29.10;12.18;;;;;;;13.84;95.55;99183.94;5099305;28;20055;-80
2021/08/18 01:03:16;;;;;;;25.83;11.18;;;;;;;13.92;95.44;99183.75;5093502;28;20056;-79
2021/08/18 01:05:44;;;;;;;34.47;11.05;;;;;;;13.76;96.44;99166.69;5093483;28;20097;-80
2021/08/18 01:08:11;;;;;;;26.17;11.73;;;;;;;13.85;96.42;99174.69;5113125;28;20163;-80
2021/08/18 01:10:38;;;;;;;21.02;12.07;;;;;;;13.89;95.86;99182.25;5114097;28;20048;-81
2021/08/18 01:13:07;;;;;;;25.40;11.13;;;;;;;13.76;95.90;99163.09;5113468;28;20096;-80
2021/08/18 01:15:35;;;;;;;26.58;11.77;;;;;;;13.89;95.62;99178.69;5113411;28;20052;-80
2021/08/18 01:18:04;;;;;;;27.30;12.23;;;;;;;13.90;96.13;99178.50;5105129;28;20048;-80
2021/08/18 01:20:34;;;;;;;28.50;11.77;;;;;;;13.85;97.58;99183.75;5093225;28;20044;-80
2021/08/18 01:23:03;;;;;;;;;;;;;;;13.86;96.53;99185.41;5097623;28;20035;-80
2021/08/18 01:25:30;;;;;;;24.98;11.18;;;;;;;13.92;95.78;99187.31;5113207;28;20394;-80
2021/08/18 01:27:59;;;;;;;29.25;11.75;;;;;;;13.88;96.35;99186.06;5113672;28;20556;-80
2021/08/18 01:30:29;;;;;;;22.98;11.70;;;;;;;13.91;95.44;99168.38;5113618;28;20186;-80
2021/08/18 01:32:58;;;;;;;23.55;11.32;;;;;;;13.85;95.36;99185.63;5112481;28;20148;-79
2021/08/18 01:35:27;;;;;;;23.63;10.98;;;;;;;13.84;95.32;99175.75;5113694;28;20093;-80
2021/08/18 01:37:54;;;;;;;26.88;13.15;;;;;;;13.80;95.29;99169.84;5113346;28;20051;-80
2021/08/18 01:40:21;;;;;;;25.15;11.90;;;;;;;13.89;94.31;99181.44;5113818;28;20051;-80
2021/08/18 01:42:48;;;;;;;28.58;11.73;;;;;;;13.93;95.22;99178.06;5113343;28;20043;-79
2021/08/18 01:45:20;;;;;;;26.17;12.68;;;;;;;13.98;95.42;99178.31;5113177;28;20512;-79
2021/08/18 01:47:49;;;;;;;25.27;10.68;;;;;;;13.96;94.99;99177.66;5113584;28;20124;-80
2021/08/18 01:50:16;;;;;;;26.70;11.05;;;;;;;13.97;94.23;99186.69;5112732;28;20043;-79
2021/08/18 01:52:42;;;;;;;23.98;11.10;;;;;;;13.97;95.09;99183.97;5112611;28;20104;-79
2021/08/18 01:55:11;;;;;;;24.45;12.38;;;;;;;14.05;94.89;99174.75;5112926;28;20047;-79
2021/08/18 01:57:39;;;;;;;27.60;12.50;;;;;;;14.02;94.05;99181.47;5112971;28;20048;-80
2021/08/18 02:00:07;;;;;;;22.58;10.63;;;;;;;13.95;93.77;99175.97;5113457;28;20656;-79
2021/08/18 02:02:33;;;;;;;25.83;11.00;;;;;;;13.87;94.17;99170.72;5112912;28;20502;-79
2021/08/18 02:05:02;;;;;;;27.33;11.45;;;;;;;13.98;94.73;99180.19;5112715;28;20067;-79
2021/08/18 02:07:28;;;;;;;26.38;11.50;;;;;;;13.97;95.00;99178.50;5111850;28;20051;-80
2021/08/18 02:09:55;;;;;;;28.65;11.50;;;;;;;14.05;93.84;99183.78;5112662;28;20074;-80
2021/08/18 02:12:22;;;;;;;25.90;11.32;;;;;;;13.86;93.43;99163.53;5113010;28;20054;-80
2021/08/18 02:14:49;;;;;;;24.55;11.65;;;;;;;13.98;94.34;99177.47;5112656;28;20047;-80
2021/08/18 02:17:16;;;;;;;28.25;10.77;;;;;;;14.01;93.66;99179.78;5112973;28;20039;-79
2021/08/18 02:19:42;;;;;;;31.05;11.50;;;;;;;13.99;93.40;99176.41;5112583;28;20039;-80
2021/08/18 02:22:10;;;;;;;25.85;11.85;;;;;;;14.02;94.13;99175.16;5112729;28;20052;-80
2021/08/18 02:24:37;;;;;;;22.33;11.13;;;;;;;13.98;93.95;99175.59;5110746;28;20051;-80
2021/08/18 02:27:05;;;;;;;23.10;11.20;;;;;;;13.97;94.42;99175.75;5112944;28;20112;-79
2021/08/18 02:29:31;;;;;;;26.25;11.45;;;;;;;13.90;93.60;99169.47;5112857;28;20052;-80
2021/08/18 02:31:58;;;;;;;27.35;11.77;;;;;;;14.05;93.70;99169.28;5112717;28;20202;-80
2021/08/18 02:34:25;;;;;;;31.00;10.73;;;;;;;13.98;93.61;99172.00;5112055;28;20052;-80
2021/08/18 02:36:52;;;;;;;22.17;11.50;;;;;;;14.04;94.16;99175.78;5112499;28;20051;-80
2021/08/18 02:39:20;;;;;;;25.15;10.50;;;;;;;13.99;94.39;99177.25;5111836;28;20052;-79
2021/08/18 02:41:47;;;;;;;26.45;10.88;;;;;;;14.08;94.53;99179.81;5112561;28;20051;-80
2021/08/18 02:44:14;;;;;;;23.23;10.25;;;;;;;13.98;93.43;99177.47;5111418;28;20039;-80
2021/08/18 02:46:40;;;;;;;25.73;10.93;;;;;;;13.95;94.07;99169.66;5112888;28;20056;-80
2021/08/18 02:49:07;;;;;;;23.45;10.85;;;;;;;13.95;93.55;99156.84;5112410;28;20400;-80
2021/08/18 02:51:34;;;;;;;31.92;12.57;;;;;;;13.94;93.57;99165.25;5112600;28;20055;-80
2021/08/18 02:54:01;;;;;;;22.05;10.43;;;;;;;13.92;94.12;99170.09;5111911;28;20108;-80
2021/08/18 02:56:29;;;;;;;22.02;10.05;;;;;;;13.94;94.32;99181.63;5111940;28;20120;-80
2021/08/18 02:58:56;;;;;;;26.73;11.05;;;;;;;13.80;94.05;99158.91;5106989;28;20052;-80
2021/08/18 03:01:22;;;;;;;21.40;9.60;;;;;;;13.83;93.93;99165.84;5092165;28;20105;-80
2021/08/18 03:03:49;;;;;;;17.75;8.98;;;;;;;13.82;93.95;99165.03;5091517;28;20048;-80
2021/08/18 03:06:16;;;;;;;18.50;9.18;;;;;;;13.87;93.72;99169.88;5092030;28;20116;-80
2021/08/18 03:08:42;;;;;;;22.40;9.27;;;;;;;13.73;93.91;99158.03;5092219;28;20047;-80
2021/08/18 03:11:09;;;;;;;17.25;8.65;;;;;;;13.97;94.17;99183.97;5092084;28;20085;-80
2021/08/18 03:13:37;;;;;;;18.70;8.95;;;;;;;13.87;94.75;99183.53;5093959;28;20114;-80
2021/08/18 03:16:05;;;;;;;20.20;8.65;;;;;;;13.75;95.07;99162.25;5100920;28;20048;-79
2021/08/18 03:18:32;;;;;;;15.70;8.35;;;;;;;13.84;94.83;99179.31;5112027;28;20112;-80
2021/08/18 03:20:58;;;;;;;13.75;7.68;;;;;;;13.95;95.18;99186.91;5112169;28;20056;-80
2021/08/18 03:23:25;;;;;;;13.07;6.72;;;;;;;13.74;94.88;99159.75;5111915;28;20074;-80
2021/08/18 03:25:52;;;;;;;15.40;8.27;;;;;;;13.89;95.06;99173.22;5112222;28;20187;-80
2021/08/18 03:28:19;;;;;;;19.13;7.57;;;;;;;13.91;95.71;99185.66;5111941;28;20457;-80
2021/08/18 03:30:47;;;;;;;16.45;7.35;;;;;;;13.77;95.67;99176.53;5108247;28;20094;-80
2021/08/18 03:33:14;;;;;;;14.13;6.85;;;;;;;13.84;95.92;99182.06;5110820;28;20051;-80
2021/08/18 03:35:41;;;;;;;14.77;7.15;;;;;;;13.89;96.05;99187.72;5114626;28;20047;-80
2021/08/18 03:38:07;;;;;;;14.13;7.10;;;;;;;13.78;95.96;99161.03;5115889;28;20050;-80
2021/08/18 03:40:34;;;;;;;15.15;7.28;;;;;;;13.84;95.93;99178.50;5115905;28;20043;-80
2021/08/18 03:43:01;;;;;;;12.90;7.60;;;;;;;13.79;96.63;99177.22;5115059;28;20055;-80
2021/08/18 03:45:28;;;;;;;14.70;7.50;;;;;;;13.97;96.48;99182.09;5115743;28;20097;-81
2021/08/18 03:47:57;;;;;;;14.95;6.80;;;;;;;13.84;95.42;99171.13;5115069;28;20487;-80
2021/08/18 03:50:24;;;;;;;17.17;6.97;;;;;;;13.85;95.81;99174.69;5115208;28;20096;-80
2021/08/18 03:52:50;;;;;;;17.08;7.50;;;;;;;13.79;95.86;99177.22;5115653;28;20066;-81
2021/08/18 03:55:17;;;;;;;18.73;8.70;;;;;;;13.81;96.03;99175.09;5115037;28;20547;-80
2021/08/18 03:57:44;;;;;;;20.02;7.53;;;;;;;13.74;95.81;99174.22;5115318;28;20052;-80
2021/08/18 04:00:13;;;;;;;17.77;7.95;;;;;;;13.71;96.15;99171.06;5115268;28;20108;-81
2021/08/18 04:02:40;;;;;;;16.65;8.55;;;;;;;13.95;95.31;99191.53;5115414;28;20043;-80
2021/08/18 04:05:09;;;;;;;19.30;8.75;;;;;;;13.80;95.86;99172.56;5114669;28;20047;-81
2021/08/18 04:07:37;;;;;;;19.02;7.82;;;;;;;13.76;95.81;99180.34;5114869;28;20515;-80
2021/08/18 04:10:05;;;;;;;14.88;8.05;;;;;;;13.78;96.13;99180.16;5115041;28;20551;-80
2021/08/18 04:12:32;;;;;;;16.20;9.55;;;;;;;13.86;96.57;99196.34;5115372;28;20093;-82
2021/08/18 04:14:59;;;;;;;16.50;8.40;;;;;;;13.74;96.96;99163.31;5114736;28;20040;-80
2021/08/18 04:17:26;;;;;;;15.57;8.48;;;;;;;13.86;97.01;99181.84;5114892;28;20043;-79
2021/08/18 04:19:53;;;;;;;11.85;7.18;;;;;;;13.68;96.93;99176.94;5112085;28;20052;-80
2021/08/18 04:22:21;;;;;;;13.15;6.80;;;;;;;13.78;97.75;99185.59;5095169;28;20476;-80
2021/08/18 04:24:48;;;;;;;12.52;6.32;;;;;;;13.78;97.02;99170.03;5105050;28;20091;-79
2021/08/18 04:27:14;;;;;;;13.05;7.20;;;;;;;13.83;97.06;99187.72;5114396;28;20501;-80
2021/08/18 04:29:41;;;;;;;17.05;6.90;;;;;;;13.85;97.83;99189.22;5115044;28;20051;-80
2021/08/18 04:32:08;;;;;;;16.73;7.10;;;;;;;13.84;97.55;99192.97;5114260;28;20062;-80
2021/08/18 04:34:35;;;;;;;13.88;6.88;;;;;;;13.84;97.58;99192.16;5114543;28;20134;-79
2021/08/18 04:37:02;;;;;;;14.95;6.60;;;;;;;13.84;98.08;99195.72;5114204;28;20057;-79
2021/08/18 04:39:30;;;;;;;18.25;6.65;;;;;;;13.73;98.24;99190.81;5114458;28;20488;-79
2021/08/18 04:41:57;;;;;;;14.77;6.72;;;;;;;13.81;97.96;99196.13;5114418;28;20483;-80
2021/08/18 04:44:23;;;;;;;13.52;6.45;;;;;;;13.76;98.60;99193.16;5114050;28;20551;-79
2021/08/18 04:46:50;;;;;;;12.73;7.10;;;;;;;13.74;98.21;99189.78;5113056;28;20048;-79
2021/08/18 04:49:17;;;;;;;15.48;7.03;;;;;;;13.79;97.84;99199.06;5114713;28;20100;-80
2021/08/18 04:51:43;;;;;;;11.43;6.25;;;;;;;13.80;98.58;99202.63;5114658;28;20449;-80
2021/08/18 04:54:10;;;;;;;11.32;6.20;;;;;;;13.79;98.25;99200.97;5117436;27;20068;-80
2021/08/18 04:56:38;;;;;;;15.05;6.40;;;;;;;13.87;98.23;99208.13;5114615;28;20078;-79
2021/08/18 04:59:05;;;;;;;16.13;5.85;;;;;;;13.82;97.86;99186.88;5114318;28;20156;-79
2021/08/18 05:01:31;;;;;;;12.90;5.18;;;;;;;13.87;97.73;99203.50;5114230;28;20096;-79
2021/08/18 05:03:58;;;;;;;11.27;5.75;;;;;;;13.84;98.13;99195.72;5114092;28;20388;-81
2021/08/18 05:06:25;;;;;;;10.57;5.63;;;;;;;13.85;97.94;99204.75;5114256;28;20101;-80
2021/08/18 05:08:52;;;;;;;13.65;6.00;;;;;;;13.73;98.51;99199.03;5103973;28;20101;-80
2021/08/18 05:11:18;;;;;;;10.68;5.75;;;;;;;13.81;98.65;99204.31;5114076;28;20112;-80
2021/08/18 05:13:46;;;;;;;8.43;5.35;;;;;;;13.87;98.63;99208.97;5113636;28;20399;-80
2021/08/18 05:16:13;;;;;;;11.07;5.63;;;;;;;13.88;98.07;99204.31;5114356;28;20453;-79
2021/08/18 05:18:40;;;;;;;10.10;5.57;;;;;;;13.78;98.40;99194.63;5113942;28;20097;-79
2021/08/18 05:21:06;;;;;;;14.50;5.40;;;;;;;13.65;98.83;99189.13;5114338;28;20453;-80
2021/08/18 05:23:33;;;;;;;9.88;5.00;;;;;;;13.77;100.00;99206.59;5113138;28;20088;-80
2021/08/18 05:26:00;;;;;;;7.70;5.13;;;;;;;13.81;100.00;99213.34;5113317;28;20051;-80
2021/08/18 05:28:28;;;;;;;12.25;5.68;;;;;;;13.80;100.00;99205.34;5113042;28;20052;-79
2021/08/18 05:30:56;;;;;;;12.23;5.47;;;;;;;13.77;100.00;99189.38;5113637;28;20044;-79
2021/08/18 05:33:23;;;;;;;9.88;4.95;;;;;;;13.90;100.00;99216.75;5113303;28;20058;-79
2021/08/18 05:35:50;;;;;;;11.65;5.68;;;;;;;13.94;100.00;99218.03;5113411;28;20092;-79
2021/08/18 05:38:16;;;;;;;11.75;5.38;;;;;;;13.99;100.00;99209.22;5113381;28;20047;-80
2021/08/18 05:40:43;;;;;;;10.05;6.00;;;;;;;14.07;100.00;99219.94;5113676;28;20516;-80
2021/08/18 05:43:12;;;;;;;12.40;4.97;;;;;;;14.09;100.00;99217.00;5112382;28;20059;-79
2021/08/18 05:45:39;;;;;;;10.07;5.07;;;;;;;14.11;99.95;99215.75;5112718;28;20047;-80
2021/08/18 05:48:07;;;;;;;8.73;5.18;;;;;;;13.94;99.14;99201.63;5113437;28;20105;-79
2021/08/18 05:50:34;;;;;;;9.07;4.82;;;;;;;13.98;100.00;99207.53;5113503;28;20055;-79
2021/08/18 05:53:01;;;;;;;8.50;4.15;;;;;;;13.95;99.98;99205.19;5113041;28;20495;-79
2021/08/18 05:55:27;;;;;;;10.48;4.57;;;;;;;13.99;100.00;99210.03;5112871;28;20046;-79
2021/08/18 05:57:54;;;;;;;8.30;4.60;;;;;;;14.06;100.00;99215.53;5111659;28;20047;-79
2021/08/18 06:00:21;;;;;;;8.23;3.92;;;;;;;14.03;100.00;99215.97;5112704;28;20063;-79
2021/08/18 06:02:48;;;;;;;12.45;4.38;;;;;;;14.06;99.87;99201.88;5113024;28;20047;-79
2021/08/18 06:05:16;;;;;;;4.95;3.65;;;;;;;14.15;99.30;99216.16;5113253;28;20048;-80
2021/08/18 06:07:43;;;;;;;6.35;3.83;;;;;;;14.17;98.60;99214.09;5112700;28;20541;-80
2021/08/18 06:10:10;;;;;;;6.28;3.97;;;;;;;14.06;97.82;99206.47;5113091;28;20044;-80
2021/08/18 06:12:37;;;;;;;8.68;3.85;;;;;;;14.09;98.35;99208.81;5113108;27;20048;-79
2021/08/18 06:15:04;;;;;;;10.85;4.30;;;;;;;14.19;97.77;99219.34;5118588;27;20096;-79
2021/08/18 06:17:30;;;;;;;8.60;4.10;;;;;;;14.22;97.66;99208.00;5112548;28;20101;-79
2021/08/18 06:19:57;;;;;;;8.50;4.43;;;;;;;14.21;97.14;99217.25;5112861;28;20048;-79
2021/08/18 06:22:25;;;;;;;7.00;3.88;;;;;;;14.23;97.31;99218.72;5112161;28;20048;-79
2021/08/18 06:24:52;;;;;;;6.97;4.43;;;;;;;14.06;97.78;99203.75;5112550;28;20043;-79
2021/08/18 06:27:20;;;;;;;8.48;4.35;;;;;;;14.27;96.65;99219.16;5112917;28;20480;-79
2021/08/18 06:29:46;;;;;;;8.95;4.45;;;;;;;14.23;96.25;99210.53;5112170;28;20055;-80
2021/08/18 06:32:13;;;;;;;7.43;3.63;;;;;;;14.15;96.93;99197.91;5111720;28;20081;-79
2021/08/18 06:34:40;;;;;;;8.63;4.53;;;;;;;14.24;96.51;99219.56;5111954;28;20064;-79
2021/08/18 06:37:07;;;;;;;6.07;4.20;;;;;;;14.21;97.34;99209.91;5112687;28;20441;-79
2021/08/18 06:39:36;;;;;;;7.85;3.83;;;;;;;14.29;96.89;99209.69;5112607;28;20047;-79
2021/08/18 06:42:03;;;;;;;8.15;4.13;;;;;;;14.33;96.32;99224.63;5112473;28;20491;-80
2021/08/18 06:44:30;;;;;;;5.43;3.13;;;;;;;14.33;95.67;99221.91;5112251;28;20052;-80
2021/08/18 06:46:57;;;;;;;7.68;4.00;;;;;;;14.30;95.59;99205.06;5111282;28;20100;-80
2021/08/18 06:49:24;;;;;;;10.77;3.50;;;;;;;14.43;94.96;99223.38;5112387;28;20127;-79
2021/08/18 06:51:51;;;;;;;3.75;2.92;;;;;;;14.38;95.74;99213.06;5112579;28;20048;-79
2021/08/18 06:54:17;;;;;;;5.40;3.28;;;;;;;14.39;96.06;99216.63;5112244;28;20100;-79
2021/08/18 06:56:45;;;;;;;8.48;3.35;;;;;;;14.44;96.05;99220.44;5112798;28;20080;-79
2021/08/18 06:59:13;;;;;;;6.28;3.65;;;;;;;14.44;96.09;99214.97;5112480;28;20116;-79
2021/08/18 07:01:40;;;;;;;6.80;3.55;;;;;;;14.48;97.58;99215.38;5111477;28;20056;-79
2021/08/18 07:04:07;;;;;;;8.15;3.80;;;;;;;14.61;97.01;99222.81;5111472;28;20047;-79
2021/08/18 07:06:34;;;;;;;4.70;3.10;;;;;;;14.55;96.14;99212.66;5112308;28;20066;-79
2021/08/18 07:09:01;;;;;;;4.78;3.10;;;;;;;14.64;96.06;99228.69;5110601;28;20036;-79
2021/08/18 07:11:28;;;;;;;5.93;3.28;;;;;;;14.62;96.24;99236.28;5099472;28;20112;-79
2021/08/18 07:13:59;;;;;;;4.63;2.50;;;;;;;14.50;96.04;99221.50;5117212;28;20100;-80
2021/08/18 07:16:26;;;;;;;7.38;2.50;;;;;;;14.52;96.25;99228.44;5122695;27;20138;-79
2021/08/18 07:19:04;;;;;;;3.95;2.58;;;;;;;14.60;96.96;99221.94;5117798;27;20073;-79
2021/08/18 07:21:33;;;;;;;4.72;2.35;;;;;;;14.64;97.40;99219.66;5116416;28;20184;-79
2021/08/18 07:24:00;;;;;;;4.43;3.30;;;;;;;14.73;96.85;99223.03;5115920;28;20047;-79
2021/08/18 07:26:27;;;;;;;4.00;2.25;;;;;;;14.80;97.46;99226.59;5116249;28;20120;-79
2021/08/18 07:28:56;;;;;;;4.93;1.98;;;;;;;14.72;95.87;99224.91;5116074;28;20048;-79
2021/08/18 07:31:24;;;;;;;5.15;2.22;;;;;;;14.84;96.88;99228.72;5115397;28;20059;-79
2021/08/18 07:33:51;;;;;;;6.63;2.10;;;;;;;14.91;97.05;99215.00;5114982;28;20040;-78
2021/08/18 07:36:18;;;;;;;3.15;2.10;;;;;;;14.92;96.21;99224.03;5115702;28;20077;-78
2021/08/18 07:38:45;;;;;;;5.63;1.80;;;;;;;14.86;95.21;99214.81;5116195;28;20441;-79
2021/08/18 07:41:15;;;;;;;6.03;1.33;;;;;;;15.00;94.87;99219.19;5111160;28;20090;-79
2021/08/18 07:43:41;;;;;;;8.38;1.70;;;;;;;15.01;94.05;99203.63;5094811;28;20052;-79
2021/08/18 07:46:08;;;;;;;2.80;1.40;;;;;;;15.24;93.11;99213.28;5114650;28;20472;-79
2021/08/18 07:48:36;;;;;;;3.60;1.42;;;;;;;15.42;92.25;99212.59;5115760;28;20043;-79
2021/08/18 07:51:03;;;;;;;6.50;1.83;;;;;;;15.62;91.91;99202.41;5112623;28;20055;-78
2021/08/18 07:53:30;;;;;;;3.95;1.52;;;;;;;15.80;91.53;99200.88;5115271;28;20044;-79
2021/08/18 07:55:57;;;;;;;1.65;1.30;;;;;;;15.73;90.46;99182.53;5108324;28;20040;-79
2021/08/18 08:02:26;;;;;;;2.15;1.33;;;;;;;16.26;87.01;99200.63;5031509;28;20057;-79
2021/08/18 08:04:54;;;;;;;1.85;1.23;;;;;;;16.42;86.70;99207.50;5065830;28;20052;-79
2021/08/18 08:07:20;;;;;;;9.00;2.45;;;;;;;16.61;87.53;99208.38;5095059;28;20044;-79
2021/08/18 08:09:47;;;;;;;5.72;1.27;;;;;;;16.58;86.10;99206.09;5094950;28;20052;-79
2021/08/18 08:12:14;;;;;;;2.83;1.50;;;;;;;16.46;87.29;99202.38;5107963;28;20075;-79
2021/08/18 08:14:40;;;;;;;1.35;1.10;;;;;;;16.42;86.09;99207.50;5114962;28;20035;-79
2021/08/18 08:17:10;;;;;;;4.13;1.20;;;;;;;16.46;86.70;99213.38;5114796;28;20043;-79
2021/08/18 08:19:37;;;;;;;3.33;1.40;;;;;;;16.40;86.73;99222.47;5113195;28;20044;-79
2021/08/18 08:22:05;;;;;;;2.55;1.65;;;;;;;16.23;87.09;99223.00;5113410;28;20059;-79
2021/08/18 08:24:32;;;;;;;1.88;1.10;;;;;;;16.06;88.39;99208.97;5114533;28;20081;-79
2021/08/18 08:26:59;;;;;;;1.98;1.20;;;;;;;16.25;87.60;99222.78;5115011;28;20048;-79
2021/08/18 08:29:26;;;;;;;1.35;1.00;;;;;;;16.23;86.32;99214.78;5114053;28;20136;-79
2021/08/18 08:31:52;;;;;;;9.52;1.60;;;;;;;16.17;87.37;99203.84;5114377;28;20075;-79
2021/08/18 08:34:19;;;;;;;1.30;1.10;;;;;;;16.28;87.29;99222.34;5114328;28;20047;-79
2021/08/18 08:36:46;;;;;;;2.08;1.00;;;;;;;16.44;85.79;99221.81;5114728;28;20044;-79
2021/08/18 08:39:15;;;;;;;4.35;1.13;;;;;;;16.60;86.08;99217.66;5115074;28;20461;-79
2021/08/18 08:41:43;;;;;;;4.72;1.05;;;;;;;16.61;85.31;99215.78;5115629;27;20100;-79
2021/08/18 08:44:16;;;;;;;3.47;0.90;;;;;;;16.60;86.56;99225.06;5113918;28;20050;-79
2021/08/18 08:46:43;;;;;;;1.77;1.00;;;;;;;16.58;86.02;99222.56;5114299;28;20068;-79
2021/08/18 08:49:10;;;;;;;3.90;1.05;;;;;;;16.53;84.62;99216.91;5114638;28;20379;-79
2021/08/18 08:51:37;;;;;;;2.65;1.30;;;;;;;16.18;86.01;99211.84;5098397;28;20051;-79
2021/08/18 08:54:04;;;;;;;1.55;1.13;;;;;;;16.19;86.12;99230.00;5113518;28;20044;-79
2021/08/18 08:56:33;;;;;;;1.50;0.95;;;;;;;16.26;85.97;99228.06;5114368;28;20044;-79
2021/08/18 08:59:00;;;;;;;1.60;0.80;;;;;;;16.19;86.20;99234.66;5114138;28;20051;-79
2021/08/18 09:02:02;;;;;;;1.63;1.13;;;;;;;16.46;85.79;99236.16;5113996;28;20067;-79
2021/08/18 09:04:30;;;;;;;4.45;1.15;;;;;;;16.70;85.06;99230.09;5114031;28;20048;-79
2021/08/18 09:07:08;;;;;;;2.60;0.90;;;;;;;16.90;83.45;99221.69;5113692;28;20079;-79
2021/08/18 09:09:36;;;;;;;1.23;0.80;;;;;;;17.02;83.63;99222.63;5113784;28;20195;-79
2021/08/18 09:12:07;;;;;;;2.58;0.68;;;;;;;17.21;81.98;99229.00;5113639;28;20097;-79
2021/08/18 09:14:36;;;;;;;0.82;0.73;;;;;;;17.10;81.76;99229.75;5113847;28;20116;-79
2021/08/18 09:17:03;;;;;;;0.70;0.65;;;;;;;17.08;80.23;99226.41;5113277;28;20101;-79
2021/08/18 09:19:31;;;;;;;5.60;0.65;;;;;;;17.10;79.52;99213.25;5113544;28;20502;-78
2021/08/18 09:22:06;;;;;;;2.17;0.90;;;;;;;17.06;79.93;99223.88;5114288;28;20051;-78
2021/08/18 09:24:33;;;;;;;1.85;0.90;;;;;;;17.06;80.50;99221.13;5112782;28;20050;-79
2021/08/18 09:27:06;;;;;;;3.25;1.08;;;;;;;17.03;81.26;99220.75;5113078;28;20043;-79
2021/08/18 09:29:45;;;;;;;1.83;0.98;;;;;;;17.13;81.81;99223.78;5113560;28;20412;-79
2021/08/18 09:32:25;;;;;;;1.38;1.02;;;;;;;17.12;81.17;99224.88;5113235;28;20127;-79
2021/08/18 09:34:55;;;;;;;0.70;0.70;;;;;;;17.28;80.86;99220.69;5113083;28;20131;-79
2021/08/18 09:37:23;;;;;;;;;;;;;;;17.42;80.11;99225.00;5114188;28;20109;-79
2021/08/18 09:39:50;;;;;;;2.40;1.05;;;;;;;17.53;79.78;99220.63;5112694;28;19919;-79
2021/08/18 09:42:26;;;;;;;0.98;0.85;;;;;;;17.50;79.82;99208.19;5110260;27;20060;-79
2021/08/18 09:45:15;;;;;;;1.83;1.00;;;;;;;17.77;79.50;99221.63;5111800;28;20050;-79
2021/08/18 09:47:52;;;;;;;1.92;1.05;;;;;;;17.91;79.51;99222.31;5112951;28;20052;-79
2021/08/18 09:50:22;;;;;;;2.53;0.93;;;;;;;17.95;78.61;99211.69;5112833;28;20055;-79
2021/08/18 09:52:49;;;;;;;;;;;;;;;17.95;77.24;99209.78;5129878;27;20073;-79
2021/08/18 09:55:22;;;;;;;1.20;1.10;;;;;;;17.68;76.98;99207.34;5112726;28;20375;-79
2021/08/18 09:57:49;;;;;;;1.13;0.80;;;;;;;17.60;78.58;99218.66;5112875;28;20479;-79
2021/08/18 10:00:17;;;;;;;3.33;1.10;;;;;;;17.79;79.53;99221.38;5113079;28;20095;-79
2021/08/18 10:02:45;;;;;;;2.72;1.20;;;;;;;17.85;78.28;99217.72;5112618;28;20105;-79
2021/08/18 10:05:12;;;;;;;1.20;1.10;;;;;;;17.90;77.34;99230.78;5113060;27;20430;-79
2021/08/18 10:07:39;;;;;;;1.75;1.00;;;;;;;17.67;77.03;99222.16;5112226;28;20085;-79
2021/08/18 10:10:07;;;;;;;1.42;1.20;;;;;;;17.62;78.68;99235.75;5111940;28;20048;-80
2021/08/18 10:12:35;;;;;;;2.58;1.17;;;;;;;17.37;78.90;99224.81;5097186;28;20066;-79
2021/08/18 10:15:04;;;;;;;2.25;1.50;;;;;;;17.02;79.10;99227.31;5106431;28;20079;-80
2021/08/18 10:17:42;;;;;;;1.10;0.85;;;;;;;16.91;80.05;99221.47;5112820;28;20078;-79
2021/08/18 10:20:10;;;;;;;1.33;0.98;;;;;;;16.97;79.77;99227.97;5112991;28;20044;-79
2021/08/18 10:22:38;;;;;;;1.70;1.10;;;;;;;16.89;80.37;99234.59;5112807;28;20063;-79
2021/08/18 10:25:43;;;;;;;2.03;1.10;;;;;;;16.99;80.66;99228.59;5111292;28;20043;-79
2021/08/18 10:28:10;;;;;;;1.83;0.95;;;;;;;17.08;80.78;99231.88;5101826;28;20123;-80
2021/08/18 10:30:51;;;;;;;1.83;1.20;;;;;;;17.35;81.22;99237.94;5112497;28;20063;-79
2021/08/18 10:33:55;;;;;;;1.33;0.90;;;;;;;17.48;79.89;99232.31;5091889;28;20466;-79
2021/08/18 10:37:01;;;;;;;1.65;1.00;;;;;;;17.64;79.31;99228.13;5108289;28;20047;-79
2021/08/18 10:39:31;;;;;;;1.42;1.17;;;;;;;17.58;79.05;99236.44;5112300;28;20507;-79
2021/08/18 10:42:02;;;;;;;3.33;0.93;;;;;;;17.48;78.32;99226.00;5112110;28;20101;-79
2021/08/18 10:44:34;;;;;;;3.40;1.15;;;;;;;17.72;78.59;99226.13;5111208;28;20104;-79
2021/08/18 10:47:19;;;;;;;1.35;0.88;;;;;;;18.12;76.88;99209.13;5112071;28;20044;-79
2021/08/18 10:49:51;;;;;;;2.92;1.02;;;;;;;18.24;77.23;99218.28;5091124;28;20058;-79
2021/08/18 10:52:51;;;;;;;1.35;0.90;;;;;;;18.30;75.14;99222.84;5112275;28;20105;-79
2021/08/18 10:55:32;;;;;;;1.10;0.68;;;;;;;18.09;75.01;99201.34;5111922;28;20491;-79
2021/08/18 10:57:59;;;;;;;2.20;1.00;;;;;;;18.00;74.68;99198.09;5111995;28;20092;-79
2021/08/18 11:00:37;;;;;;;4.70;1.50;;;;;;;17.95;75.24;99215.28;5113130;28;20058;-79
2021/08/18 11:03:51;;;;;;;1.63;1.08;;;;;;;18.07;75.64;99198.84;5112701;28;20109;-82
2021/08/18 11:07:02;;;;;;;1.33;1.17;;;;;;;18.19;75.15;99212.63;5113383;28;20079;-79
2021/08/18 11:10:08;;;;;;;1.55;1.05;;;;;;;18.09;74.28;99210.44;5050006;28;20053;-79
2021/08/18 11:12:58;;;;;;;1.50;1.13;;;;;;;18.39;75.98;99209.59;5050965;28;20060;-79
2021/08/18 11:16:03;;;;;;;2.53;1.65;;;;;;;18.68;72.70;99207.88;5102729;28;20051;-79
2021/08/18 11:18:48;;;;;;;17.10;9.93;;;;;;;18.75;71.72;99211.31;5093959;28;20384;-79
2021/08/18 11:21:17;;;;;;;10.98;5.78;;;;;;;18.72;72.53;99213.72;5112205;28;20503;-79
2021/08/18 11:26:53;;;;;;;1.75;1.63;;;;;;;19.37;70.71;99207.28;5110295;28;20062;-79
2021/08/18 11:29:26;;;;;;;2.15;1.25;;;;;;;19.32;70.08;99184.31;5111753;28;20052;-79
2021/08/18 11:39:29;;;;;;;;;;;;;;;;;;;;;
2021/08/18 11:42:11;;;;;;;1.63;1.20;;;;;;;20.91;63.23;99169.94;5033252;28;20049;-79
2021/08/18 11:47:33;;;;;;;1.65;1.20;;;;;;;20.48;64.71;99172.25;5104267;28;20062;-79
2021/08/18 11:52:44;;;;;;;0.93;0.90;;;;;;;19.88;66.58;99185.50;5107305;28;20051;-79
2021/08/18 11:55:29;;;;;;;1.50;1.13;;;;;;;19.91;66.01;99181.44;5112163;28;20048;-79
2021/08/18 11:58:13;;;;;;;1.48;1.02;;;;;;;20.23;66.19;99184.50;5115424;28;20043;-79
2021/08/18 12:00:48;;;;;;;1.08;0.90;;;;;;;20.54;64.63;99156.63;5095586;28;20061;-79